Time;durP1;ratioP1;P1;durP2;ratioP2;P2;SDS_P1;SDS_P2;PMS_P1;PMS_P2;Temp;Humidity;BMP_temperature;BMP_pressure;BME280_temperature;BME280_humidity;BME280_pressure;Samples;Min_cycle;Max_cycle;Signal;HPM_P1;HPM_P2
2021/11/08 00:01:43;;;;;;;16.38;4.03;;;7.90;99.90;;;;;;5046273;28;25080;-67
2021/11/08 00:04:09;;;;;;;25.52;4.53;;;8.00;99.90;;;;;;5042646;28;25075;-67
2021/11/08 00:06:35;;;;;;;22.95;4.95;;;8.00;99.90;;;;;;5038369;28;25065;-67
2021/11/08 00:09:02;;;;;;;14.55;3.78;;;8.00;99.90;;;;;;5040478;28;25070;-67
2021/11/08 00:11:27;;;;;;;17.92;4.47;;;8.00;99.90;;;;;;5032333;28;25087;-67
2021/11/08 00:13:54;;;;;;;22.13;3.78;;;8.10;99.90;;;;;;5041971;28;25111;-67
2021/11/08 00:21:34;;;;;;;16.63;3.95;;;8.40;99.90;;;;;;5042198;28;25104;-67
2021/11/08 00:24:00;;;;;;;20.00;4.30;;;8.60;99.90;;;;;;5041104;28;25073;-65
2021/11/08 00:26:26;;;;;;;21.63;4.53;;;8.80;99.90;;;;;;5042398;28;25051;-67
2021/11/08 00:28:52;;;;;;;23.85;4.47;;;8.80;99.90;;;;;;5052917;28;25087;-68
2021/11/08 00:31:18;;;;;;;16.73;3.80;;;8.90;99.90;;;;;;5028099;28;25085;-65
2021/11/08 00:33:44;;;;;;;29.85;5.80;;;8.90;99.90;;;;;;5045024;28;25079;-68
2021/11/08 00:36:10;;;;;;;24.52;5.03;;;9.10;99.90;;;;;;5028882;28;25073;-68
2021/11/08 00:38:36;;;;;;;16.80;4.00;;;9.00;99.90;;;;;;5040524;28;25057;-69
2021/11/08 00:41:02;;;;;;;10.95;3.35;;;9.10;99.90;;;;;;5043875;28;25059;-67
2021/11/08 00:43:28;;;;;;;17.05;3.83;;;9.10;99.90;;;;;;5040573;28;25102;-66
2021/11/08 00:45:54;;;;;;;24.08;4.13;;;9.10;99.90;;;;;;5040406;28;25060;-68
2021/11/08 00:48:22;;;;;;;18.42;4.07;;;9.10;99.90;;;;;;5022142;28;25062;-67
2021/11/08 00:50:50;;;;;;;20.25;4.60;;;9.20;99.90;;;;;;5044611;28;25138;-67
2021/11/08 00:53:16;;;;;;;16.45;4.05;;;9.20;99.90;;;;;;5022890;28;25145;-68
2021/11/08 00:55:43;;;;;;;20.10;3.65;;;9.20;99.90;;;;;;5039376;28;25072;-67
2021/11/08 00:58:16;;;;;;;20.65;4.80;;;9.20;99.90;;;;;;5020601;28;25069;-68
2021/11/08 01:00:42;;;;;;;19.90;3.70;;;9.10;99.90;;;;;;5036113;28;25056;-68
2021/11/08 01:03:08;;;;;;;19.33;4.03;;;8.90;99.90;;;;;;5042490;28;25076;-67
2021/11/08 01:05:34;;;;;;;20.88;4.57;;;8.80;99.90;;;;;;5042033;28;25055;-67
2021/11/08 01:08:02;;;;;;;18.38;4.57;;;8.70;99.90;;;;;;5024842;28;25053;-67
2021/11/08 01:10:28;;;;;;;25.95;4.28;;;8.60;99.90;;;;;;5044958;28;25082;-68
2021/11/08 01:12:53;;;;;;;19.55;4.07;;;8.50;99.90;;;;;;5045493;28;25055;-67
2021/11/08 01:15:20;;;;;;;16.85;3.95;;;8.40;99.90;;;;;;5050030;28;25054;-68
2021/11/08 01:17:45;;;;;;;14.55;3.95;;;8.40;99.90;;;;;;5045381;28;25062;-67
2021/11/08 01:20:12;;;;;;;17.13;4.07;;;8.50;99.90;;;;;;5031699;28;25057;-68
2021/11/08 01:22:39;;;;;;;19.25;4.13;;;8.50;99.90;;;;;;5043925;28;25044;-66
2021/11/08 01:25:06;;;;;;;13.63;3.65;;;8.60;99.90;;;;;;5038114;28;25066;-67
2021/11/08 01:27:36;;;;;;;17.50;4.25;;;8.60;99.90;;;;;;5053787;28;25082;-68
2021/11/08 01:30:06;;;;;;;16.25;3.60;;;8.60;99.90;;;;;;5058938;28;25049;-67
2021/11/08 01:32:32;;;;;;;19.60;3.63;;;8.60;99.90;;;;;;5027468;28;25082;-66
2021/11/08 01:34:58;;;;;;;21.08;4.38;;;8.60;99.90;;;;;;5045660;28;25128;-69
2021/11/08 01:37:24;;;;;;;22.80;4.72;;;8.50;99.90;;;;;;5042466;28;25101;-68
2021/11/08 01:39:50;;;;;;;15.70;4.15;;;8.60;99.90;;;;;;5039675;28;25102;-68
2021/11/08 01:42:16;;;;;;;17.77;3.97;;;8.60;99.90;;;;;;5045639;28;25136;-69
2021/11/08 01:44:42;;;;;;;22.95;4.32;;;8.60;99.90;;;;;;5038760;28;25061;-66
2021/11/08 01:47:10;;;;;;;19.30;4.10;;;8.50;99.90;;;;;;5043585;28;25142;-67
2021/11/08 01:49:38;;;;;;;16.10;3.80;;;8.50;99.90;;;;;;5025296;28;25153;-67
2021/11/08 01:52:07;;;;;;;18.15;4.55;;;8.50;99.90;;;;;;5012980;28;25071;-67
2021/11/08 01:54:33;;;;;;;22.42;5.10;;;8.50;99.90;;;;;;5048366;28;25131;-67
2021/11/08 01:56:59;;;;;;;25.88;4.20;;;8.30;99.90;;;;;;5045198;28;25069;-68
2021/11/08 01:59:26;;;;;;;25.10;5.45;;;8.20;99.90;;;;;;5034223;28;25064;-67
2021/11/08 02:01:54;;;;;;;24.60;5.43;;;8.00;99.90;;;;;;5023265;28;25130;-68
2021/11/08 02:04:21;;;;;;;15.73;3.97;;;7.90;99.90;;;;;;5037214;28;25059;-67
2021/11/08 02:06:47;;;;;;;30.08;5.55;;;7.90;99.90;;;;;;5048137;28;25067;-66
2021/11/08 02:09:13;;;;;;;24.58;4.93;;;7.80;99.90;;;;;;5032058;28;25073;-68
2021/11/08 02:11:40;;;;;;;24.65;4.78;;;7.70;99.90;;;;;;5045668;28;25058;-67
2021/11/08 02:14:06;;;;;;;25.45;5.40;;;7.70;99.90;;;;;;5033810;28;25061;-67
2021/11/08 02:16:34;;;;;;;20.13;5.25;;;7.70;99.90;;;;;;5046979;28;25061;-67
2021/11/08 02:19:02;;;;;;;25.13;5.43;;;7.60;99.90;;;;;;5048843;28;25130;-66
2021/11/08 02:21:29;;;;;;;24.15;4.50;;;7.60;99.90;;;;;;5049697;28;25076;-67
2021/11/08 02:23:55;;;;;;;17.02;4.38;;;7.60;99.90;;;;;;5032326;28;25077;-66
2021/11/08 02:26:21;;;;;;;20.85;4.97;;;7.70;99.90;;;;;;5048341;28;25051;-67
2021/11/08 02:28:49;;;;;;;21.70;4.75;;;7.70;99.90;;;;;;5049091;28;25069;-66
2021/11/08 02:31:18;;;;;;;20.98;4.78;;;7.70;99.90;;;;;;5041300;28;25082;-67
2021/11/08 02:33:45;;;;;;;23.65;5.22;;;7.70;99.90;;;;;;5040977;28;25055;-66
2021/11/08 02:36:12;;;;;;;23.45;5.25;;;7.60;99.90;;;;;;5045670;28;25102;-66
2021/11/08 02:38:45;;;;;;;23.02;4.65;;;7.70;99.90;;;;;;5045803;28;25052;-67
2021/11/08 02:41:11;;;;;;;18.60;4.53;;;7.80;99.90;;;;;;5043261;28;25068;-68
2021/11/08 02:43:39;;;;;;;33.53;6.53;;;7.90;99.90;;;;;;5045771;28;25053;-67
2021/11/08 02:46:09;;;;;;;23.23;4.40;;;7.90;99.90;;;;;;5045754;28;25182;-67
2021/11/08 02:48:36;;;;;;;24.60;5.43;;;8.00;99.90;;;;;;5044120;28;25072;-68
2021/11/08 02:51:08;;;;;;;26.88;4.97;;;8.00;99.90;;;;;;5036897;28;25065;-66
2021/11/08 02:53:35;;;;;;;22.75;4.43;;;8.00;99.90;;;;;;5044279;28;25099;-67
2021/11/08 02:56:02;;;;;;;23.33;4.40;;;7.90;99.90;;;;;;5046225;28;25142;-67
2021/11/08 02:58:29;;;;;;;25.83;4.65;;;8.00;99.90;;;;;;5047888;28;25126;-67
2021/11/08 03:00:55;;;;;;;24.27;5.07;;;8.00;99.90;;;;;;5043766;28;25111;-67
2021/11/08 03:03:29;;;;;;;23.30;4.55;;;8.10;99.90;;;;;;5041607;28;25054;-65
2021/11/08 03:06:02;;;;;;;22.77;4.53;;;8.10;99.90;;;;;;5037675;28;25168;-67
2021/11/08 03:08:27;;;;;;;32.88;4.88;;;8.10;99.90;;;;;;5036116;28;25084;-67
2021/11/08 03:10:56;;;;;;;27.08;4.85;;;8.10;99.90;;;;;;5044459;28;24958;-67
2021/11/08 03:13:23;;;;;;;21.75;4.47;;;8.10;99.90;;;;;;5045644;28;25132;-66
2021/11/08 03:18:28;;;;;;;18.65;4.55;;;8.20;99.90;;;;;;5041708;28;25133;-67
2021/11/08 03:20:54;;;;;;;23.15;4.65;;;8.30;99.90;;;;;;5040835;28;25086;-67
2021/11/08 03:23:19;;;;;;;18.25;5.43;;;8.20;99.90;;;;;;5040904;28;25083;-67
2021/11/08 03:26:08;;;;;;;23.48;4.20;;;8.20;99.90;;;;;;5045305;28;25157;-66
2021/11/08 03:28:36;;;;;;;20.83;4.82;;;8.20;99.90;;;;;;5045116;28;25089;-67
2021/11/08 03:31:03;;;;;;;27.02;5.22;;;8.20;99.90;;;;;;5044726;28;25082;-67
2021/11/08 03:33:29;;;;;;;22.90;4.55;;;8.30;99.90;;;;;;5038987;28;25079;-67
2021/11/08 03:35:57;;;;;;;24.98;5.00;;;8.30;99.90;;;;;;5040044;28;25059;-67
2021/11/08 03:38:23;;;;;;;25.23;4.53;;;8.30;99.90;;;;;;5043223;28;25098;-68
2021/11/08 03:40:48;;;;;;;26.63;5.60;;;8.30;99.90;;;;;;5046005;28;25105;-67
2021/11/08 03:43:18;;;;;;;33.28;6.47;;;8.30;99.90;;;;;;5044915;28;25118;-67
2021/11/08 03:45:44;;;;;;;22.45;4.70;;;8.30;99.90;;;;;;5034302;28;25139;-67
2021/11/08 03:48:12;;;;;;;23.65;4.85;;;8.30;99.90;;;;;;5039920;28;25067;-67
2021/11/08 03:50:39;;;;;;;22.73;4.50;;;8.30;99.90;;;;;;5040418;28;25122;-67
2021/11/08 03:53:05;;;;;;;27.52;5.45;;;8.40;99.90;;;;;;5041214;28;25160;-67
2021/11/08 03:55:31;;;;;;;23.75;5.22;;;8.40;99.90;;;;;;5042978;28;25056;-67
2021/11/08 03:57:57;;;;;;;27.73;5.10;;;8.30;99.90;;;;;;5044334;28;25150;-66
2021/11/08 04:00:25;;;;;;;25.70;5.80;;;8.30;99.90;;;;;;5045300;28;25069;-67
2021/11/08 04:02:54;;;;;;;31.30;5.45;;;8.20;99.90;;;;;;5041609;28;25136;-67
2021/11/08 04:05:21;;;;;;;22.55;5.20;;;8.20;99.90;;;;;;5026028;28;25078;-67
2021/11/08 04:07:47;;;;;;;24.63;5.10;;;8.10;99.90;;;;;;5046008;28;25065;-67
2021/11/08 04:10:15;;;;;;;26.25;5.18;;;8.10;99.90;;;;;;5045283;28;25143;-67
2021/11/08 04:12:41;;;;;;;29.63;5.38;;;8.00;99.90;;;;;;5036667;28;25083;-67
2021/11/08 04:15:10;;;;;;;30.77;5.40;;;8.00;99.90;;;;;;5044079;28;25062;-66
2021/11/08 04:17:42;;;;;;;27.60;6.68;;;8.00;99.90;;;;;;5032470;28;25058;-66
2021/11/08 04:20:09;;;;;;;26.77;5.45;;;8.00;99.90;;;;;;5046496;28;25101;-67
2021/11/08 04:22:36;;;;;;;21.88;5.70;;;8.10;99.90;;;;;;5041034;28;25069;-67
2021/11/08 04:25:03;;;;;;;24.75;5.38;;;8.10;99.90;;;;;;5037280;28;25075;-66
2021/11/08 04:27:33;;;;;;;26.95;5.85;;;8.10;99.90;;;;;;5029244;28;25055;-67
2021/11/08 04:29:59;;;;;;;22.75;4.88;;;8.00;99.90;;;;;;5030030;28;25146;-66
2021/11/08 04:32:30;;;;;;;24.90;5.00;;;7.90;99.90;;;;;;5033296;28;25049;-66
2021/11/08 04:35:04;;;;;;;21.02;4.03;;;7.90;99.90;;;;;;5036525;28;25084;-67
2021/11/08 04:43:14;;;;;;;30.27;5.43;;;8.00;99.90;;;;;;5045297;28;25157;-67
2021/11/08 04:48:38;;;;;;;24.20;5.23;;;7.90;99.90;;;;;;5046983;28;25056;-66
2021/11/08 04:51:13;;;;;;;30.73;5.68;;;7.70;99.90;;;;;;5031981;28;25081;-67
2021/11/08 04:53:49;;;;;;;24.17;5.43;;;7.60;99.90;;;;;;5048222;28;25127;-67
2021/11/08 04:56:38;;;;;;;25.40;5.45;;;7.50;99.90;;;;;;5025088;28;25066;-67
2021/11/08 05:31:05;;;;;;;24.92;5.65;;;7.80;99.90;;;;;;5038278;28;25098;-67
2021/11/08 05:33:31;;;;;;;30.05;5.63;;;7.80;99.90;;;;;;5048443;28;25047;-66
2021/11/08 05:35:57;;;;;;;25.90;5.35;;;7.90;99.90;;;;;;5042891;28;25056;-66
2021/11/08 05:38:25;;;;;;;30.73;5.25;;;8.00;99.90;;;;;;5042630;28;25063;-67
2021/11/08 05:40:51;;;;;;;25.92;6.05;;;8.00;99.90;;;;;;5044105;28;25126;-64
2021/11/08 05:43:16;;;;;;;28.75;5.60;;;8.00;99.90;;;;;;5045774;28;25086;-66
2021/11/08 05:45:42;;;;;;;21.58;5.38;;;8.10;99.90;;;;;;5042540;28;25046;-67
2021/11/08 05:48:09;;;;;;;25.88;4.95;;;8.10;99.90;;;;;;5047680;28;25104;-66
2021/11/08 05:50:37;;;;;;;23.92;5.72;;;8.10;99.90;;;;;;5045291;28;25151;-66
2021/11/08 05:53:05;;;;;;;24.85;6.38;;;8.10;99.90;;;;;;5041814;28;25129;-66
2021/11/08 05:55:35;;;;;;;30.15;5.50;;;8.10;99.90;;;;;;5027292;28;25063;-66
2021/11/08 05:58:14;;;;;;;31.63;6.63;;;8.10;99.90;;;;;;5036195;28;25079;-67
2021/11/08 06:50:06;;;;;;;34.17;7.47;;;8.10;99.90;;;;;;5036338;28;25072;-67
2021/11/08 06:52:34;;;;;;;38.85;7.28;;;8.20;99.90;;;;;;5032991;28;25061;-66
2021/11/08 06:55:05;;;;;;;31.73;7.00;;;8.20;99.90;;;;;;5036410;28;25075;-66
2021/11/08 06:57:33;;;;;;;36.30;7.80;;;8.30;99.90;;;;;;5017799;28;25071;-68
2021/11/08 06:59:59;;;;;;;34.90;7.30;;;8.30;99.90;;;;;;5044200;28;25178;-66
2021/11/08 07:02:25;;;;;;;29.23;6.07;;;8.40;99.90;;;;;;5047140;28;25119;-66
2021/11/08 07:04:53;;;;;;;30.13;5.68;;;8.50;99.90;;;;;;5036417;28;25109;-67
2021/11/08 07:07:19;;;;;;;35.72;7.57;;;8.60;99.90;;;;;;5044685;28;25078;-66
2021/11/08 07:09:45;;;;;;;26.45;7.35;;;8.70;99.90;;;;;;5036680;28;25057;-68
2021/11/08 07:12:11;;;;;;;37.03;8.05;;;8.60;99.90;;;;;;5045876;28;25141;-65
2021/11/08 07:14:37;;;;;;;39.42;7.45;;;8.60;99.90;;;;;;5028793;28;25127;-66
2021/11/08 07:17:04;;;;;;;35.13;6.60;;;8.60;99.90;;;;;;5047031;28;25054;-67
2021/11/08 07:19:29;;;;;;;35.17;6.78;;;8.60;99.90;;;;;;5025675;28;25072;-69
2021/11/08 07:21:55;;;;;;;33.45;6.53;;;8.70;99.90;;;;;;5022748;28;25079;-66
2021/11/08 07:24:21;;;;;;;27.23;6.95;;;8.70;99.90;;;;;;5034589;28;25148;-66
2021/11/08 07:26:47;;;;;;;25.17;6.25;;;8.80;99.90;;;;;;5033009;28;25071;-66
2021/11/08 07:29:15;;;;;;;35.15;6.18;;;8.90;99.90;;;;;;5037697;28;25097;-66
2021/11/08 07:31:42;;;;;;;26.52;6.55;;;9.00;99.90;;;;;;5024925;28;25149;-66
2021/11/08 07:34:08;;;;;;;29.58;5.93;;;9.00;99.90;;;;;;5033975;28;25085;-66
2021/11/08 07:36:34;;;;;;;40.70;6.50;;;9.00;99.90;;;;;;5038034;28;25076;-67
2021/11/08 07:39:00;;;;;;;32.42;6.93;;;9.00;99.90;;;;;;5020791;28;25097;-67
2021/11/08 07:41:26;;;;;;;28.27;6.72;;;9.10;99.90;;;;;;5040714;28;25143;-67
2021/11/08 07:43:52;;;;;;;33.60;7.57;;;9.00;99.90;;;;;;5035920;28;25071;-67
2021/11/08 07:46:18;;;;;;;31.95;6.50;;;9.10;99.90;;;;;;5034506;28;25048;-67
2021/11/08 07:48:45;;;;;;;39.00;7.10;;;9.10;99.90;;;;;;5039187;28;25101;-66
2021/11/08 07:51:14;;;;;;;26.38;6.38;;;9.30;99.90;;;;;;5037387;28;25084;-67
2021/11/08 07:53:40;;;;;;;29.73;6.65;;;9.30;99.90;;;;;;5036862;28;25051;-66
2021/11/08 07:56:06;;;;;;;35.80;6.47;;;9.30;99.90;;;;;;5037908;28;25054;-68
2021/11/08 07:58:32;;;;;;;33.63;7.00;;;9.30;99.90;;;;;;5036482;28;25078;-67
2021/11/08 08:00:58;;;;;;;29.48;6.68;;;9.40;99.90;;;;;;5043827;28;25155;-67
2021/11/08 08:03:26;;;;;;;30.55;6.70;;;9.40;99.90;;;;;;5039415;28;25158;-66
2021/11/08 08:05:55;;;;;;;30.55;6.78;;;9.40;99.90;;;;;;5034754;28;25088;-68
2021/11/08 08:08:21;;;;;;;34.10;7.07;;;9.50;99.90;;;;;;5025341;28;25147;-66
2021/11/08 08:10:50;;;;;;;26.45;6.38;;;9.50;99.90;;;;;;5046244;28;25073;-67
2021/11/08 08:13:19;;;;;;;34.60;7.65;;;9.60;99.90;;;;;;5020747;28;25066;-67
2021/11/08 08:15:45;;;;;;;31.02;6.85;;;9.60;99.90;;;;;;5036643;28;25069;-66
2021/11/08 08:18:12;;;;;;;21.58;5.70;;;9.60;99.90;;;;;;5040123;28;25048;-68
2021/11/08 08:20:38;;;;;;;27.83;6.30;;;9.70;99.90;;;;;;5038069;28;25066;-67
2021/11/08 08:23:04;;;;;;;36.22;6.70;;;9.80;99.90;;;;;;5040846;28;25082;-67
2021/11/08 08:25:30;;;;;;;25.23;7.13;;;9.80;99.90;;;;;;5043918;28;25153;-67
2021/11/08 08:27:58;;;;;;;33.47;6.22;;;9.80;99.90;;;;;;5035107;28;25161;-66
2021/11/08 08:30:25;;;;;;;26.25;6.82;;;9.80;99.90;;;;;;5044834;28;25078;-67
2021/11/08 08:32:52;;;;;;;27.85;6.70;;;9.90;99.90;;;;;;5014638;28;25079;-67
2021/11/08 08:35:17;;;;;;;33.47;6.78;;;9.90;99.90;;;;;;5036397;28;25076;-67
2021/11/08 08:37:44;;;;;;;26.73;6.32;;;9.90;99.90;;;;;;5040202;28;25071;-66
2021/11/08 08:40:11;;;;;;;30.95;5.78;;;10.00;99.90;;;;;;5045257;28;25084;-67
2021/11/08 08:42:36;;;;;;;38.30;7.72;;;10.10;99.90;;;;;;5045626;28;25109;-66
2021/11/08 08:45:04;;;;;;;24.65;6.35;;;10.20;99.90;;;;;;5048613;28;25164;-67
2021/11/08 08:47:30;;;;;;;31.92;6.60;;;10.10;99.90;;;;;;5050647;28;25133;-67
2021/11/08 08:49:56;;;;;;;27.95;5.88;;;10.20;99.90;;;;;;5029023;28;25077;-66
2021/11/08 08:52:22;;;;;;;27.75;7.03;;;10.10;99.90;;;;;;5033101;28;25046;-66
2021/11/08 08:54:49;;;;;;;30.85;7.15;;;10.00;99.90;;;;;;5038250;28;25091;-65
2021/11/08 08:57:15;;;;;;;29.73;6.05;;;10.10;99.90;;;;;;5044476;28;25067;-69
2021/11/08 08:59:42;;;;;;;29.55;6.07;;;10.10;99.90;;;;;;5038267;28;25076;-67
2021/11/08 09:02:08;;;;;;;26.25;5.97;;;10.00;99.90;;;;;;5038783;28;25075;-65
2021/11/08 09:04:35;;;;;;;28.05;6.55;;;10.10;99.90;;;;;;5026640;28;25140;-68
2021/11/08 09:07:01;;;;;;;31.50;7.03;;;10.10;99.90;;;;;;5039946;28;25096;-68
2021/11/08 09:09:26;;;;;;;25.80;5.20;;;10.10;99.90;;;;;;5013084;28;25102;-67
2021/11/08 09:11:52;;;;;;;26.20;6.18;;;10.20;99.90;;;;;;5039972;28;25053;-66
2021/11/08 09:14:18;;;;;;;42.03;8.23;;;10.30;99.90;;;;;;5024129;28;25100;-66
2021/11/08 09:16:43;;;;;;;26.90;6.40;;;10.40;99.90;;;;;;5034098;28;25084;-66
2021/11/08 09:19:09;;;;;;;23.35;5.82;;;10.50;99.90;;;;;;5032658;28;25063;-66
2021/11/08 09:21:36;;;;;;;26.23;5.82;;;10.50;99.90;;;;;;5025642;28;25074;-65
2021/11/08 09:24:03;;;;;;;26.58;5.90;;;10.50;99.90;;;;;;5042902;28;25106;-67
2021/11/08 09:26:31;;;;;;;25.00;5.38;;;10.60;99.90;;;;;;5050060;28;25130;-67
2021/11/08 09:28:57;;;;;;;26.42;6.00;;;10.50;99.90;;;;;;5036740;28;25057;-65
2021/11/08 09:31:25;;;;;;;22.73;5.45;;;10.50;99.90;;;;;;5042408;28;25075;-65
2021/11/08 09:33:53;;;;;;;30.90;6.32;;;10.50;99.90;;;;;;5040442;28;25137;-65
2021/11/08 09:36:18;;;;;;;39.10;6.28;;;10.70;99.90;;;;;;5044174;28;25068;-67
2021/11/08 09:38:56;;;;;;;25.08;5.20;;;10.80;99.90;;;;;;5042684;28;25054;-65
2021/11/08 09:41:29;;;;;;;32.70;5.90;;;10.80;99.90;;;;;;5039218;28;25049;-67
2021/11/08 09:43:58;;;;;;;28.23;5.80;;;10.90;99.90;;;;;;5044390;28;25086;-65
2021/11/08 09:46:24;;;;;;;27.10;5.82;;;10.70;99.90;;;;;;5036136;28;25073;-66
2021/11/08 09:48:51;;;;;;;32.47;7.03;;;10.70;99.90;;;;;;5045351;28;25076;-66
2021/11/08 09:51:18;;;;;;;27.05;4.95;;;10.80;99.90;;;;;;5017205;28;25130;-67
2021/11/08 09:53:44;;;;;;;21.48;5.32;;;10.90;99.90;;;;;;5039012;28;25155;-67
2021/11/08 09:56:11;;;;;;;26.15;5.72;;;11.00;99.90;;;;;;5042057;28;25089;-65
2021/11/08 09:58:36;;;;;;;35.70;6.18;;;11.00;99.90;;;;;;5045464;28;25092;-68
2021/11/08 10:01:09;;;;;;;23.60;5.00;;;11.00;99.90;;;;;;5041403;28;25082;-66
2021/11/08 10:03:36;;;;;;;26.27;5.90;;;11.10;99.90;;;;;;5049101;28;25125;-66
2021/11/08 10:06:04;;;;;;;26.90;5.40;;;11.20;99.90;;;;;;5043804;28;25077;-68
2021/11/08 10:08:33;;;;;;;28.30;5.10;;;11.40;99.90;;;;;;5028311;28;25069;-67
2021/11/08 10:11:04;;;;;;;32.45;5.38;;;11.70;99.90;;;;;;5027797;28;25131;-67
2021/11/08 10:13:31;;;;;;;20.42;5.45;;;11.80;99.90;;;;;;5020994;28;25060;-66
2021/11/08 10:16:07;;;;;;;26.10;5.28;;;11.70;99.90;;;;;;5033548;28;25530;-65
2021/11/08 10:18:34;;;;;;;23.15;6.22;;;11.60;99.90;;;;;;5039155;28;25058;-67
2021/11/08 10:21:10;;;;;;;23.88;5.97;;;11.60;99.90;;;;;;5041416;28;24936;-67
2021/11/08 10:23:38;;;;;;;26.95;5.00;;;11.60;99.90;;;;;;5030890;28;25100;-67
2021/11/08 10:26:10;;;;;;;22.55;5.43;;;11.80;99.90;;;;;;5038185;28;25058;-67
2021/11/08 10:28:36;;;;;;;29.67;5.82;;;12.10;99.90;;;;;;5029909;28;25067;-67
2021/11/08 10:31:09;;;;;;;29.77;6.03;;;12.50;99.90;;;;;;5035882;28;25080;-68
2021/11/08 10:33:35;;;;;;;26.50;4.95;;;12.60;99.90;;;;;;5036507;28;25057;-68
2021/11/08 10:36:12;;;;;;;23.55;4.93;;;12.60;99.90;;;;;;5037444;28;25077;-66
2021/11/08 10:38:40;;;;;;;25.75;6.05;;;12.60;99.90;;;;;;5043456;28;25070;-68
2021/11/08 10:41:19;;;;;;;26.65;5.18;;;12.60;99.90;;;;;;5034971;28;25082;-68
2021/11/08 10:43:54;;;;;;;20.63;5.43;;;12.50;99.90;;;;;;5037042;28;25056;-66
2021/11/08 10:46:24;;;;;;;20.10;4.82;;;12.40;99.90;;;;;;5023248;28;25056;-67
2021/11/08 10:49:01;;;;;;;24.90;5.45;;;12.40;99.90;;;;;;5047984;28;25086;-68
2021/11/08 10:51:29;;;;;;;23.75;5.40;;;12.70;99.90;;;;;;5037382;28;25101;-68
2021/11/08 10:53:57;;;;;;;25.88;5.03;;;12.90;99.90;;;;;;5033932;28;25052;-67
2021/11/08 10:56:27;;;;;;;25.17;6.43;;;12.70;99.90;;;;;;5032083;28;25098;-68
2021/11/08 10:58:56;;;;;;;28.15;5.75;;;12.80;99.90;;;;;;5033538;28;25076;-67
2021/11/08 11:01:37;;;;;;;23.75;5.70;;;12.60;99.90;;;;;;5035620;28;25064;-66
2021/11/08 11:04:05;;;;;;;24.20;4.85;;;12.90;99.90;;;;;;5034271;28;25120;-66
2021/11/08 11:06:49;;;;;;;30.52;5.72;;;13.20;99.90;;;;;;5045930;28;25080;-66
2021/11/08 11:09:21;;;;;;;16.58;3.95;;;13.50;99.90;;;;;;5043302;28;25081;-69
2021/11/08 11:12:09;;;;;;;20.35;4.50;;;13.10;99.90;;;;;;5039775;28;25062;-68
2021/11/08 11:14:42;;;;;;;18.98;4.35;;;13.30;99.90;;;;;;5031073;28;25067;-68
2021/11/08 11:17:24;;;;;;;25.02;5.72;;;13.30;99.90;;;;;;5044846;28;25062;-67
2021/11/08 11:19:51;;;;;;;23.92;5.40;;;13.50;99.90;;;;;;5043377;28;25060;-67
2021/11/08 11:22:22;;;;;;;24.00;5.10;;;13.60;99.90;;;;;;5011498;28;25053;-67
2021/11/08 11:24:53;;;;;;;25.45;5.68;;;13.70;99.90;;;;;;5028611;28;25060;-67
2021/11/08 11:27:27;;;;;;;16.08;3.95;;;13.70;99.90;;;;;;5047217;28;25096;-66
2021/11/08 11:30:25;;;;;;;18.88;4.25;;;14.00;99.90;;;;;;5035973;28;25055;-66
2021/11/08 11:33:16;;;;;;;28.77;5.18;;;13.90;99.90;;;;;;5006760;28;25080;-67
2021/11/08 11:35:54;;;;;;;14.65;4.78;;;13.50;99.90;;;;;;5035386;28;25085;-67
2021/11/08 11:38:29;;;;;;;22.30;5.55;;;13.80;99.90;;;;;;5036391;28;25065;-67
2021/11/08 11:41:05;;;;;;;24.60;4.68;;;14.10;99.90;;;;;;5030737;28;25081;-67
2021/11/08 11:43:37;;;;;;;23.08;4.40;;;14.00;99.90;;;;;;5034098;28;25083;-67
2021/11/08 11:46:06;;;;;;;15.85;4.13;;;13.70;99.90;;;;;;5034204;28;25062;-68
2021/11/08 11:48:34;;;;;;;18.85;4.95;;;13.60;99.90;;;;;;5032445;28;25071;-67
2021/11/08 11:51:00;;;;;;;20.52;3.95;;;13.50;99.90;;;;;;5031874;28;25073;-67
2021/11/08 11:53:29;;;;;;;23.52;4.60;;;13.50;99.90;;;;;;5040851;28;25065;-68
2021/11/08 11:55:55;;;;;;;27.25;4.82;;;13.30;99.90;;;;;;5035056;28;25107;-68
2021/11/08 11:58:21;;;;;;;24.35;4.93;;;13.90;99.90;;;;;;5040053;28;25065;-67
2021/11/08 12:00:49;;;;;;;20.45;4.95;;;14.50;99.90;;;;;;5044903;28;25058;-66
2021/11/08 12:03:15;;;;;;;18.20;3.72;;;14.00;99.90;;;;;;5026792;28;25092;-67
2021/11/08 12:05:44;;;;;;;20.55;3.97;;;13.40;99.90;;;;;;5029768;28;25064;-67
2021/11/08 12:08:13;;;;;;;16.80;3.83;;;13.20;99.90;;;;;;5029959;28;25071;-68
2021/11/08 12:10:46;;;;;;;14.68;4.07;;;13.00;99.90;;;;;;5037491;28;25056;-67
2021/11/08 12:13:15;;;;;;;18.05;4.63;;;12.90;99.90;;;;;;5045233;28;25061;-67
2021/11/08 12:15:40;;;;;;;23.70;4.40;;;12.70;99.90;;;;;;5020570;28;25144;-67
2021/11/08 12:18:13;;;;;;;26.05;5.40;;;12.60;99.90;;;;;;5041333;28;25060;-65
2021/11/08 12:20:55;;;;;;;20.98;4.28;;;12.40;99.90;;;;;;5026936;28;25063;-67
2021/11/08 12:23:30;;;;;;;28.08;5.72;;;12.50;99.90;;;;;;5050122;28;25058;-65
2021/11/08 12:25:56;;;;;;;18.83;4.20;;;12.50;99.90;;;;;;5013170;28;25091;-67
2021/11/08 12:28:25;;;;;;;23.20;5.00;;;12.50;99.90;;;;;;5032684;28;25074;-66
2021/11/08 12:30:58;;;;;;;28.35;5.88;;;12.60;99.90;;;;;;5016238;28;25060;-68
2021/11/08 12:33:29;;;;;;;16.42;4.28;;;12.60;99.90;;;;;;5033229;28;25058;-65
2021/11/08 12:36:18;;;;;;;25.95;5.95;;;12.70;99.90;;;;;;5035837;28;25090;-66
2021/11/08 12:39:11;;;;;;;21.23;5.13;;;12.60;99.90;;;;;;5036908;28;25059;-67
2021/11/08 12:41:48;;;;;;;22.67;5.35;;;12.60;99.90;;;;;;5035447;28;25161;-67
2021/11/08 12:44:21;;;;;;;21.90;5.20;;;12.60;99.90;;;;;;5028331;28;25062;-68
2021/11/08 12:46:48;;;;;;;;;;;12.70;99.90;;;;;;5034349;28;25072;-67
2021/11/08 12:49:34;;;;;;;25.38;4.72;;;12.60;99.90;;;;;;5020648;28;25105;-67
2021/11/08 12:52:18;;;;;;;18.73;4.93;;;12.40;99.90;;;;;;5039017;28;25078;-65
2021/11/08 12:54:47;;;;;;;22.45;5.53;;;12.40;99.90;;;;;;5033418;28;25047;-65
2021/11/08 12:57:14;;;;;;;21.98;5.10;;;12.40;99.90;;;;;;5031334;28;25092;-66
2021/11/08 12:59:47;;;;;;;27.67;5.30;;;12.40;99.90;;;;;;5044173;28;25120;-67
2021/11/08 13:02:18;;;;;;;;;;;12.40;99.90;;;;;;5033802;28;25059;-66
2021/11/08 13:04:51;;;;;;;18.65;4.38;;;12.50;99.90;;;;;;5024465;28;25049;-66
2021/11/08 13:07:19;;;;;;;22.10;5.45;;;12.50;99.90;;;;;;5049661;28;25105;-66
2021/11/08 13:09:47;;;;;;;27.65;5.15;;;12.50;99.90;;;;;;5051369;28;25079;-66
2021/11/08 13:12:20;;;;;;;22.25;5.03;;;12.30;99.90;;;;;;5039321;28;25099;-67
2021/11/08 13:14:49;;;;;;;26.67;4.72;;;12.40;99.90;;;;;;5040806;28;25087;-66
2021/11/08 13:17:20;;;;;;;20.20;4.50;;;12.30;99.90;;;;;;5027635;28;25077;-66
2021/11/08 13:19:50;;;;;;;22.08;5.00;;;12.10;99.90;;;;;;5044749;28;25066;-66
2021/11/08 13:22:39;;;;;;;24.75;4.63;;;12.20;99.90;;;;;;5036842;28;25110;-66
2021/11/08 13:25:16;;;;;;;24.92;5.47;;;12.40;99.90;;;;;;5048411;28;25063;-68
2021/11/08 13:27:51;;;;;;;22.48;5.00;;;12.30;99.90;;;;;;5032340;28;25140;-67
2021/11/08 13:30:23;;;;;;;26.52;5.65;;;12.50;99.90;;;;;;5034535;28;25081;-67
2021/11/08 13:32:51;;;;;;;22.75;4.95;;;12.50;99.90;;;;;;5030200;28;25093;-67
2021/11/08 13:35:26;;;;;;;18.95;4.82;;;12.40;99.90;;;;;;5038105;28;25057;-67
2021/11/08 13:38:12;;;;;;;22.15;5.85;;;12.40;99.90;;;;;;5038955;28;25064;-67
2021/11/08 13:40:44;;;;;;;23.98;4.97;;;12.50;99.90;;;;;;5023207;28;25159;-66
2021/11/08 13:43:20;;;;;;;24.90;4.72;;;12.40;99.90;;;;;;5042244;28;25165;-67
2021/11/08 13:45:48;;;;;;;26.50;4.90;;;12.30;99.90;;;;;;5041060;28;25068;-67
2021/11/08 13:48:21;;;;;;;23.30;5.53;;;12.30;99.90;;;;;;5043522;28;25043;-65
2021/11/08 13:50:47;;;;;;;16.80;5.45;;;12.50;99.90;;;;;;5037479;28;25093;-66
2021/11/08 13:53:36;;;;;;;21.10;4.70;;;12.30;99.90;;;;;;5027027;28;25101;-65
2021/11/08 13:56:05;;;;;;;22.58;4.60;;;12.30;99.90;;;;;;5021174;28;25089;-66
2021/11/08 13:58:31;;;;;;;22.98;5.10;;;12.20;99.90;;;;;;5048679;28;25176;-66
2021/11/08 14:01:06;;;;;;;17.23;4.22;;;12.20;99.90;;;;;;5046533;28;25091;-66
2021/11/08 14:03:43;;;;;;;15.95;4.50;;;12.30;99.90;;;;;;5054223;28;25084;-66
2021/11/08 14:06:10;;;;;;;23.98;4.78;;;12.30;99.90;;;;;;5046911;28;25078;-66
2021/11/08 14:08:42;;;;;;;30.45;5.30;;;12.30;99.90;;;;;;5053677;28;25066;-65
2021/11/08 14:11:08;;;;;;;24.08;5.13;;;12.40;99.90;;;;;;5033895;28;25088;-65
2021/11/08 14:13:40;;;;;;;25.17;4.90;;;12.50;99.90;;;;;;5047694;28;25127;-66
2021/11/08 14:16:08;;;;;;;21.70;4.07;;;12.60;99.90;;;;;;5024796;28;25070;-66
2021/11/08 14:18:35;;;;;;;29.33;5.15;;;12.70;99.90;;;;;;5026149;28;25086;-66
2021/11/08 14:21:08;;;;;;;22.65;5.63;;;12.80;99.90;;;;;;5034972;28;25144;-66
2021/11/08 14:23:34;;;;;;;28.42;6.30;;;12.50;99.90;;;;;;5035244;28;25133;-66
2021/11/08 14:26:20;;;;;;;20.48;5.05;;;12.40;99.90;;;;;;5046833;28;25089;-66
2021/11/08 14:28:47;;;;;;;20.92;5.70;;;12.20;99.90;;;;;;5023221;28;25139;-66
2021/11/08 14:31:31;;;;;;;30.70;5.57;;;12.10;99.90;;;;;;5033349;28;25074;-67